sensor_id;sensor_type;location;lat;lon;timestamp;temperature;humidity
20147;DHT22;10234;50.856;15.716;2024-02-21T00:00:56;4.50;99.90
20147;DHT22;10234;50.856;15.716;2024-02-21T00:03:23;4.50;99.90
20147;DHT22;10234;50.856;15.716;2024-02-21T00:05:50;4.30;99.90
20147;DHT22;10234;50.856;15.716;2024-02-21T00:08:17;4.50;99.90
20147;DHT22;10234;50.856;15.716;2024-02-21T00:10:44;4.40;99.90
20147;DHT22;10234;50.856;15.716;2024-02-21T00:13:10;4.50;99.90
20147;DHT22;10234;50.856;15.716;2024-02-21T00:15:37;4.30;99.90
20147;DHT22;10234;50.856;15.716;2024-02-21T00:18:06;4.40;99.90
20147;DHT22;10234;50.856;15.716;2024-02-21T00:20:33;4.40;99.90
20147;DHT22;10234;50.856;15.716;2024-02-21T00:23:00;4.40;99.90
20147;DHT22;10234;50.856;15.716;2024-02-21T00:25:27;4.60;99.90
20147;DHT22;10234;50.856;15.716;2024-02-21T00:27:54;4.40;99.90
20147;DHT22;10234;50.856;15.716;2024-02-21T00:30:20;4.40;99.90
20147;DHT22;10234;50.856;15.716;2024-02-21T00:32:47;4.40;99.90
20147;DHT22;10234;50.856;15.716;2024-02-21T00:35:16;4.40;99.90
20147;DHT22;10234;50.856;15.716;2024-02-21T00:40:11;4.40;99.90
20147;DHT22;10234;50.856;15.716;2024-02-21T00:42:37;4.40;99.90
20147;DHT22;10234;50.856;15.716;2024-02-21T00:45:05;4.40;99.90
20147;DHT22;10234;50.856;15.716;2024-02-21T00:47:33;4.50;99.90
20147;DHT22;10234;50.856;15.716;2024-02-21T00:50:00;4.40;99.90
20147;DHT22;10234;50.856;15.716;2024-02-21T00:52:28;4.50;99.90
20147;DHT22;10234;50.856;15.716;2024-02-21T00:54:55;4.40;99.90
20147;DHT22;10234;50.856;15.716;2024-02-21T00:57:22;4.40;99.90
20147;DHT22;10234;50.856;15.716;2024-02-21T00:59:49;4.40;99.90
20147;DHT22;10234;50.856;15.716;2024-02-21T01:02:16;4.40;99.90
20147;DHT22;10234;50.856;15.716;2024-02-21T01:04:43;4.30;99.90
20147;DHT22;10234;50.856;15.716;2024-02-21T01:07:10;4.30;99.90
20147;DHT22;10234;50.856;15.716;2024-02-21T01:09:38;4.30;99.90
20147;DHT22;10234;50.856;15.716;2024-02-21T01:12:05;4.30;99.90
20147;DHT22;10234;50.856;15.716;2024-02-21T01:14:33;4.30;99.90
20147;DHT22;10234;50.856;15.716;2024-02-21T01:16:59;4.30;99.90
20147;DHT22;10234;50.856;15.716;2024-02-21T01:19:27;4.30;99.90
20147;DHT22;10234;50.856;15.716;2024-02-21T01:21:53;4.30;99.90
20147;DHT22;10234;50.856;15.716;2024-02-21T01:24:20;5.10;99.90
20147;DHT22;10234;50.856;15.716;2024-02-21T01:26:49;4.30;99.90
20147;DHT22;10234;50.856;15.716;2024-02-21T01:29:16;4.40;99.90
20147;DHT22;10234;50.856;15.716;2024-02-21T01:31:42;4.20;99.90
20147;DHT22;10234;50.856;15.716;2024-02-21T01:34:09;4.30;99.90
20147;DHT22;10234;50.856;15.716;2024-02-21T01:36:36;4.30;99.90
20147;DHT22;10234;50.856;15.716;2024-02-21T01:39:03;4.40;99.90
20147;DHT22;10234;50.856;15.716;2024-02-21T01:41:30;4.30;99.90
20147;DHT22;10234;50.856;15.716;2024-02-21T01:43:59;4.30;99.90
20147;DHT22;10234;50.856;15.716;2024-02-21T01:46:26;4.50;99.90
20147;DHT22;10234;50.856;15.716;2024-02-21T01:48:54;4.50;99.90
20147;DHT22;10234;50.856;15.716;2024-02-21T01:51:21;4.50;99.90
20147;DHT22;10234;50.856;15.716;2024-02-21T01:53:50;4.60;99.90
20147;DHT22;10234;50.856;15.716;2024-02-21T01:56:17;4.60;99.90
20147;DHT22;10234;50.856;15.716;2024-02-21T01:58:45;4.50;99.90
20147;DHT22;10234;50.856;15.716;2024-02-21T02:01:13;4.60;99.90
20147;DHT22;10234;50.856;15.716;2024-02-21T02:03:41;4.30;99.90
20147;DHT22;10234;50.856;15.716;2024-02-21T02:06:07;4.50;99.90
20147;DHT22;10234;50.856;15.716;2024-02-21T02:08:35;4.50;99.90
20147;DHT22;10234;50.856;15.716;2024-02-21T02:11:02;4.50;99.90
20147;DHT22;10234;50.856;15.716;2024-02-21T02:15:56;4.50;99.90
20147;DHT22;10234;50.856;15.716;2024-02-21T02:18:25;4.40;99.90
20147;DHT22;10234;50.856;15.716;2024-02-21T02:20:52;4.50;99.90
20147;DHT22;10234;50.856;15.716;2024-02-21T02:23:23;4.60;99.90
20147;DHT22;10234;50.856;15.716;2024-02-21T02:25:50;4.40;99.90
20147;DHT22;10234;50.856;15.716;2024-02-21T02:28:18;4.60;99.90
20147;DHT22;10234;50.856;15.716;2024-02-21T02:30:45;4.70;99.90
20147;DHT22;10234;50.856;15.716;2024-02-21T02:33:12;5.00;99.90
20147;DHT22;10234;50.856;15.716;2024-02-21T02:35:39;4.70;99.90
20147;DHT22;10234;50.856;15.716;2024-02-21T02:38:06;4.70;99.90
20147;DHT22;10234;50.856;15.716;2024-02-21T02:40:35;4.70;99.90
20147;DHT22;10234;50.856;15.716;2024-02-21T02:43:02;4.80;99.90
20147;DHT22;10234;50.856;15.716;2024-02-21T02:45:29;4.80;99.90
20147;DHT22;10234;50.856;15.716;2024-02-21T02:47:57;4.80;99.90
20147;DHT22;10234;50.856;15.716;2024-02-21T02:50:24;4.90;99.90
20147;DHT22;10234;50.856;15.716;2024-02-21T02:52:51;4.90;99.90
20147;DHT22;10234;50.856;15.716;2024-02-21T02:55:18;4.80;99.90
20147;DHT22;10234;50.856;15.716;2024-02-21T02:57:47;5.10;99.90
20147;DHT22;10234;50.856;15.716;2024-02-21T03:00:15;5.00;99.90
20147;DHT22;10234;50.856;15.716;2024-02-21T03:02:45;5.10;99.90
20147;DHT22;10234;50.856;15.716;2024-02-21T03:05:13;5.10;99.90
20147;DHT22;10234;50.856;15.716;2024-02-21T03:07:41;5.10;99.90
20147;DHT22;10234;50.856;15.716;2024-02-21T03:10:09;5.00;99.90
20147;DHT22;10234;50.856;15.716;2024-02-21T03:12:36;5.10;99.90
20147;DHT22;10234;50.856;15.716;2024-02-21T03:15:06;5.20;99.90
20147;DHT22;10234;50.856;15.716;2024-02-21T03:17:33;5.30;99.90
20147;DHT22;10234;50.856;15.716;2024-02-21T03:20:00;5.20;99.90
20147;DHT22;10234;50.856;15.716;2024-02-21T03:22:26;5.10;99.90
20147;DHT22;10234;50.856;15.716;2024-02-21T03:24:53;5.20;99.90
20147;DHT22;10234;50.856;15.716;2024-02-21T03:27:20;5.20;99.90
20147;DHT22;10234;50.856;15.716;2024-02-21T03:29:47;5.20;99.90
20147;DHT22;10234;50.856;15.716;2024-02-21T03:32:15;5.20;99.90
20147;DHT22;10234;50.856;15.716;2024-02-21T03:34:42;5.20;99.90
20147;DHT22;10234;50.856;15.716;2024-02-21T03:37:09;5.20;99.90
20147;DHT22;10234;50.856;15.716;2024-02-21T03:39:37;5.20;99.90
20147;DHT22;10234;50.856;15.716;2024-02-21T03:42:04;5.20;99.90
20147;DHT22;10234;50.856;15.716;2024-02-21T03:44:31;5.20;99.90
20147;DHT22;10234;50.856;15.716;2024-02-21T03:46:59;5.40;99.90
20147;DHT22;10234;50.856;15.716;2024-02-21T03:49:27;5.30;99.90
20147;DHT22;10234;50.856;15.716;2024-02-21T03:51:54;5.30;99.90
20147;DHT22;10234;50.856;15.716;2024-02-21T03:54:21;5.30;99.90
20147;DHT22;10234;50.856;15.716;2024-02-21T03:56:49;5.50;99.90
20147;DHT22;10234;50.856;15.716;2024-02-21T03:59:15;5.20;99.90
20147;DHT22;10234;50.856;15.716;2024-02-21T04:01:42;5.30;99.90
20147;DHT22;10234;50.856;15.716;2024-02-21T04:04:10;5.20;99.90
20147;DHT22;10234;50.856;15.716;2024-02-21T04:06:46;5.20;99.90
20147;DHT22;10234;50.856;15.716;2024-02-21T04:09:13;5.20;99.90
20147;DHT22;10234;50.856;15.716;2024-02-21T04:11:40;5.30;99.90
20147;DHT22;10234;50.856;15.716;2024-02-21T04:14:07;5.10;99.90
20147;DHT22;10234;50.856;15.716;2024-02-21T04:16:34;5.10;99.90
20147;DHT22;10234;50.856;15.716;2024-02-21T04:19:01;5.10;99.90
20147;DHT22;10234;50.856;15.716;2024-02-21T04:21:28;5.10;99.90
20147;DHT22;10234;50.856;15.716;2024-02-21T04:23:57;5.10;99.90
20147;DHT22;10234;50.856;15.716;2024-02-21T04:26:24;5.10;99.90
20147;DHT22;10234;50.856;15.716;2024-02-21T04:28:51;5.10;99.90
20147;DHT22;10234;50.856;15.716;2024-02-21T04:31:18;5.10;99.90
20147;DHT22;10234;50.856;15.716;2024-02-21T04:33:44;4.90;99.90
20147;DHT22;10234;50.856;15.716;2024-02-21T04:36:11;5.10;99.90
20147;DHT22;10234;50.856;15.716;2024-02-21T04:38:39;5.10;99.90
20147;DHT22;10234;50.856;15.716;2024-02-21T04:41:08;5.20;99.90
20147;DHT22;10234;50.856;15.716;2024-02-21T04:43:35;5.10;99.90
20147;DHT22;10234;50.856;15.716;2024-02-21T04:46:02;5.10;99.90
20147;DHT22;10234;50.856;15.716;2024-02-21T04:48:29;5.10;99.90
20147;DHT22;10234;50.856;15.716;2024-02-21T04:50:55;5.10;99.90
20147;DHT22;10234;50.856;15.716;2024-02-21T04:53:22;5.10;99.90
20147;DHT22;10234;50.856;15.716;2024-02-21T04:55:49;5.20;99.90
20147;DHT22;10234;50.856;15.716;2024-02-21T04:58:17;5.20;99.90
20147;DHT22;10234;50.856;15.716;2024-02-21T05:00:44;5.10;99.90
20147;DHT22;10234;50.856;15.716;2024-02-21T05:03:11;5.20;99.90
20147;DHT22;10234;50.856;15.716;2024-02-21T05:05:38;5.30;99.90
20147;DHT22;10234;50.856;15.716;2024-02-21T05:08:05;5.30;99.90
20147;DHT22;10234;50.856;15.716;2024-02-21T05:10:32;5.30;99.90
20147;DHT22;10234;50.856;15.716;2024-02-21T05:12:59;6.30;99.90
20147;DHT22;10234;50.856;15.716;2024-02-21T05:15:27;5.20;99.90
20147;DHT22;10234;50.856;15.716;2024-02-21T05:17:54;5.10;99.90
20147;DHT22;10234;50.856;15.716;2024-02-21T05:20:21;5.20;99.90
20147;DHT22;10234;50.856;15.716;2024-02-21T05:22:48;5.10;99.90
20147;DHT22;10234;50.856;15.716;2024-02-21T05:25:15;5.10;99.90
20147;DHT22;10234;50.856;15.716;2024-02-21T05:27:42;5.00;99.90
20147;DHT22;10234;50.856;15.716;2024-02-21T05:30:09;5.20;99.90
20147;DHT22;10234;50.856;15.716;2024-02-21T05:32:38;5.20;99.90
20147;DHT22;10234;50.856;15.716;2024-02-21T05:35:05;5.20;99.90
20147;DHT22;10234;50.856;15.716;2024-02-21T05:37:33;5.20;99.90
20147;DHT22;10234;50.856;15.716;2024-02-21T05:40:00;5.20;99.90
20147;DHT22;10234;50.856;15.716;2024-02-21T05:42:26;5.00;99.90
20147;DHT22;10234;50.856;15.716;2024-02-21T05:44:56;5.20;99.90
20147;DHT22;10234;50.856;15.716;2024-02-21T05:47:22;5.20;99.90
20147;DHT22;10234;50.856;15.716;2024-02-21T05:49:51;5.20;99.90
20147;DHT22;10234;50.856;15.716;2024-02-21T05:52:19;5.30;99.90
20147;DHT22;10234;50.856;15.716;2024-02-21T05:54:46;5.30;99.90
20147;DHT22;10234;50.856;15.716;2024-02-21T05:57:12;5.30;99.90
20147;DHT22;10234;50.856;15.716;2024-02-21T05:59:39;5.40;99.90
20147;DHT22;10234;50.856;15.716;2024-02-21T06:02:07;5.40;99.90
20147;DHT22;10234;50.856;15.716;2024-02-21T06:04:34;5.30;99.90
20147;DHT22;10234;50.856;15.716;2024-02-21T06:07:03;5.40;99.90
20147;DHT22;10234;50.856;15.716;2024-02-21T06:09:30;5.40;99.90
20147;DHT22;10234;50.856;15.716;2024-02-21T06:11:57;5.40;99.90
20147;DHT22;10234;50.856;15.716;2024-02-21T06:14:24;5.40;99.90
20147;DHT22;10234;50.856;15.716;2024-02-21T06:16:51;5.40;99.90
20147;DHT22;10234;50.856;15.716;2024-02-21T06:19:18;5.40;99.90
20147;DHT22;10234;50.856;15.716;2024-02-21T06:21:45;5.40;99.90
20147;DHT22;10234;50.856;15.716;2024-02-21T06:24:13;5.40;99.90
20147;DHT22;10234;50.856;15.716;2024-02-21T06:26:40;5.60;99.90
20147;DHT22;10234;50.856;15.716;2024-02-21T06:29:07;5.40;99.90
20147;DHT22;10234;50.856;15.716;2024-02-21T06:31:35;5.70;99.90
20147;DHT22;10234;50.856;15.716;2024-02-21T06:34:02;5.50;99.90
20147;DHT22;10234;50.856;15.716;2024-02-21T06:36:30;6.00;99.90
20147;DHT22;10234;50.856;15.716;2024-02-21T06:38:57;5.80;99.90
20147;DHT22;10234;50.856;15.716;2024-02-21T06:41:25;5.80;99.90
20147;DHT22;10234;50.856;15.716;2024-02-21T06:43:52;5.80;99.90
20147;DHT22;10234;50.856;15.716;2024-02-21T06:46:25;6.30;99.90
20147;DHT22;10234;50.856;15.716;2024-02-21T06:48:53;6.00;99.90
20147;DHT22;10234;50.856;15.716;2024-02-21T06:51:21;5.80;99.90
20147;DHT22;10234;50.856;15.716;2024-02-21T06:53:48;5.50;99.90
20147;DHT22;10234;50.856;15.716;2024-02-21T06:56:15;5.60;99.90
20147;DHT22;10234;50.856;15.716;2024-02-21T06:58:44;5.80;99.90
20147;DHT22;10234;50.856;15.716;2024-02-21T07:01:10;5.80;99.90
20147;DHT22;10234;50.856;15.716;2024-02-21T07:03:37;5.90;99.90
20147;DHT22;10234;50.856;15.716;2024-02-21T07:06:04;5.90;99.90
20147;DHT22;10234;50.856;15.716;2024-02-21T07:08:31;5.90;99.90
20147;DHT22;10234;50.856;15.716;2024-02-21T07:10:58;6.10;99.90
20147;DHT22;10234;50.856;15.716;2024-02-21T07:13:25;6.10;99.90
20147;DHT22;10234;50.856;15.716;2024-02-21T07:15:53;6.20;99.90
20147;DHT22;10234;50.856;15.716;2024-02-21T07:18:20;6.20;99.90
20147;DHT22;10234;50.856;15.716;2024-02-21T07:20:47;6.30;99.90
20147;DHT22;10234;50.856;15.716;2024-02-21T07:23:14;6.30;99.90
20147;DHT22;10234;50.856;15.716;2024-02-21T07:25:41;6.70;99.90
20147;DHT22;10234;50.856;15.716;2024-02-21T07:28:08;6.30;99.90
20147;DHT22;10234;50.856;15.716;2024-02-21T07:30:34;6.30;99.90
20147;DHT22;10234;50.856;15.716;2024-02-21T07:33:03;6.30;99.90
20147;DHT22;10234;50.856;15.716;2024-02-21T07:35:30;6.80;99.90
20147;DHT22;10234;50.856;15.716;2024-02-21T07:37:57;6.40;99.90
20147;DHT22;10234;50.856;15.716;2024-02-21T07:40:24;6.50;99.90
20147;DHT22;10234;50.856;15.716;2024-02-21T07:42:51;6.50;99.90
20147;DHT22;10234;50.856;15.716;2024-02-21T07:45:18;6.60;99.90
20147;DHT22;10234;50.856;15.716;2024-02-21T07:47:47;6.60;99.90
20147;DHT22;10234;50.856;15.716;2024-02-21T07:50:15;6.80;99.90
20147;DHT22;10234;50.856;15.716;2024-02-21T07:52:43;6.70;99.90
20147;DHT22;10234;50.856;15.716;2024-02-21T07:55:10;6.80;99.90
20147;DHT22;10234;50.856;15.716;2024-02-21T07:57:37;6.80;99.90
20147;DHT22;10234;50.856;15.716;2024-02-21T08:00:05;6.90;99.90
20147;DHT22;10234;50.856;15.716;2024-02-21T08:02:35;7.00;99.90
20147;DHT22;10234;50.856;15.716;2024-02-21T08:05:03;7.10;99.90
20147;DHT22;10234;50.856;15.716;2024-02-21T08:07:31;7.20;99.90
20147;DHT22;10234;50.856;15.716;2024-02-21T08:09:59;7.20;99.90
20147;DHT22;10234;50.856;15.716;2024-02-21T08:12:26;7.30;99.90
20147;DHT22;10234;50.856;15.716;2024-02-21T08:14:53;7.20;99.90
20147;DHT22;10234;50.856;15.716;2024-02-21T08:17:19;7.00;99.90
20147;DHT22;10234;50.856;15.716;2024-02-21T08:19:47;7.10;99.90
20147;DHT22;10234;50.856;15.716;2024-02-21T08:22:15;7.10;99.90
20147;DHT22;10234;50.856;15.716;2024-02-21T08:24:43;7.00;99.90
20147;DHT22;10234;50.856;15.716;2024-02-21T08:27:10;7.00;99.90
20147;DHT22;10234;50.856;15.716;2024-02-21T08:29:36;7.00;99.90
20147;DHT22;10234;50.856;15.716;2024-02-21T08:32:04;7.10;99.90
20147;DHT22;10234;50.856;15.716;2024-02-21T08:34:30;7.10;99.90
20147;DHT22;10234;50.856;15.716;2024-02-21T08:36:59;6.90;99.90
20147;DHT22;10234;50.856;15.716;2024-02-21T08:39:26;7.10;99.90
20147;DHT22;10234;50.856;15.716;2024-02-21T08:41:55;7.10;99.90
20147;DHT22;10234;50.856;15.716;2024-02-21T08:44:22;7.10;99.90
20147;DHT22;10234;50.856;15.716;2024-02-21T08:46:51;7.10;99.90
20147;DHT22;10234;50.856;15.716;2024-02-21T08:49:18;7.10;99.90
20147;DHT22;10234;50.856;15.716;2024-02-21T08:51:45;7.20;99.90
20147;DHT22;10234;50.856;15.716;2024-02-21T08:54:12;7.10;99.90
20147;DHT22;10234;50.856;15.716;2024-02-21T08:56:39;7.10;99.90
20147;DHT22;10234;50.856;15.716;2024-02-21T08:59:07;7.10;99.90
20147;DHT22;10234;50.856;15.716;2024-02-21T09:01:34;7.10;99.90
20147;DHT22;10234;50.856;15.716;2024-02-21T09:04:01;7.20;99.90
20147;DHT22;10234;50.856;15.716;2024-02-21T09:06:28;7.10;99.90
20147;DHT22;10234;50.856;15.716;2024-02-21T09:08:56;7.40;99.90
20147;DHT22;10234;50.856;15.716;2024-02-21T09:11:23;7.30;99.90
20147;DHT22;10234;50.856;15.716;2024-02-21T09:13:50;7.30;99.90
20147;DHT22;10234;50.856;15.716;2024-02-21T09:16:18;7.30;99.90
20147;DHT22;10234;50.856;15.716;2024-02-21T09:18:45;7.70;99.90
20147;DHT22;10234;50.856;15.716;2024-02-21T09:21:12;7.40;99.90
20147;DHT22;10234;50.856;15.716;2024-02-21T09:23:39;7.50;99.90
20147;DHT22;10234;50.856;15.716;2024-02-21T09:26:06;7.70;99.90
20147;DHT22;10234;50.856;15.716;2024-02-21T09:28:35;7.70;99.90
20147;DHT22;10234;50.856;15.716;2024-02-21T09:31:02;7.80;99.90
20147;DHT22;10234;50.856;15.716;2024-02-21T09:33:31;8.00;99.90
20147;DHT22;10234;50.856;15.716;2024-02-21T09:35:58;8.00;99.90
20147;DHT22;10234;50.856;15.716;2024-02-21T09:38:25;8.10;99.90
20147;DHT22;10234;50.856;15.716;2024-02-21T09:40:58;8.10;99.90
20147;DHT22;10234;50.856;15.716;2024-02-21T09:43:26;8.10;99.90
20147;DHT22;10234;50.856;15.716;2024-02-21T09:45:55;8.00;99.90
20147;DHT22;10234;50.856;15.716;2024-02-21T09:48:41;8.20;99.90
20147;DHT22;10234;50.856;15.716;2024-02-21T09:51:12;8.20;99.90
20147;DHT22;10234;50.856;15.716;2024-02-21T09:53:42;8.40;99.90
20147;DHT22;10234;50.856;15.716;2024-02-21T09:56:10;8.60;99.90
20147;DHT22;10234;50.856;15.716;2024-02-21T09:58:38;9.00;99.90
20147;DHT22;10234;50.856;15.716;2024-02-21T10:01:06;9.00;99.90
20147;DHT22;10234;50.856;15.716;2024-02-21T10:03:35;8.90;99.90
20147;DHT22;10234;50.856;15.716;2024-02-21T10:06:02;8.90;99.90
20147;DHT22;10234;50.856;15.716;2024-02-21T10:08:29;8.90;99.90
20147;DHT22;10234;50.856;15.716;2024-02-21T10:10:56;9.10;99.90
20147;DHT22;10234;50.856;15.716;2024-02-21T10:13:26;9.00;99.90
20147;DHT22;10234;50.856;15.716;2024-02-21T10:16:04;9.20;99.90
20147;DHT22;10234;50.856;15.716;2024-02-21T10:18:31;9.40;99.90
20147;DHT22;10234;50.856;15.716;2024-02-21T10:21:06;9.70;99.90
20147;DHT22;10234;50.856;15.716;2024-02-21T10:23:44;10.20;99.90
20147;DHT22;10234;50.856;15.716;2024-02-21T10:26:12;11.10;99.90
20147;DHT22;10234;50.856;15.716;2024-02-21T10:28:39;12.00;96.90
20147;DHT22;10234;50.856;15.716;2024-02-21T10:31:08;12.10;99.90
20147;DHT22;10234;50.856;15.716;2024-02-21T10:33:36;12.20;95.40
20147;DHT22;10234;50.856;15.716;2024-02-21T10:36:08;12.20;94.00
20147;DHT22;10234;50.856;15.716;2024-02-21T10:38:36;12.20;95.10
20147;DHT22;10234;50.856;15.716;2024-02-21T10:41:05;12.20;94.90
20147;DHT22;10234;50.856;15.716;2024-02-21T10:43:37;12.20;94.90
20147;DHT22;10234;50.856;15.716;2024-02-21T10:46:06;12.10;94.00
20147;DHT22;10234;50.856;15.716;2024-02-21T10:48:41;12.00;93.70
20147;DHT22;10234;50.856;15.716;2024-02-21T10:51:15;12.00;94.40
20147;DHT22;10234;50.856;15.716;2024-02-21T10:53:46;12.00;94.60
20147;DHT22;10234;50.856;15.716;2024-02-21T10:56:28;12.10;94.20
20147;DHT22;10234;50.856;15.716;2024-02-21T10:58:57;12.10;95.40
20147;DHT22;10234;50.856;15.716;2024-02-21T11:01:24;12.30;94.50
20147;DHT22;10234;50.856;15.716;2024-02-21T11:03:56;13.10;98.60
20147;DHT22;10234;50.856;15.716;2024-02-21T11:06:26;13.30;92.20
20147;DHT22;10234;50.856;15.716;2024-02-21T11:09:04;13.60;90.80
20147;DHT22;10234;50.856;15.716;2024-02-21T11:11:35;14.10;90.20
20147;DHT22;10234;50.856;15.716;2024-02-21T11:14:07;14.60;90.30
20147;DHT22;10234;50.856;15.716;2024-02-21T11:16:38;15.50;86.20
20147;DHT22;10234;50.856;15.716;2024-02-21T11:19:06;16.60;84.30
20147;DHT22;10234;50.856;15.716;2024-02-21T11:21:35;16.40;79.30
20147;DHT22;10234;50.856;15.716;2024-02-21T11:24:03;15.80;79.50
20147;DHT22;10234;50.856;15.716;2024-02-21T11:26:30;14.90;78.10
20147;DHT22;10234;50.856;15.716;2024-02-21T11:28:58;14.20;81.40
20147;DHT22;10234;50.856;15.716;2024-02-21T11:31:26;13.60;81.10
20147;DHT22;10234;50.856;15.716;2024-02-21T11:33:54;13.50;86.00
20147;DHT22;10234;50.856;15.716;2024-02-21T11:36:27;13.70;92.50
20147;DHT22;10234;50.856;15.716;2024-02-21T11:39:03;13.70;81.10
20147;DHT22;10234;50.856;15.716;2024-02-21T11:41:31;13.30;81.80
20147;DHT22;10234;50.856;15.716;2024-02-21T11:43:57;13.00;82.70
20147;DHT22;10234;50.856;15.716;2024-02-21T11:46:24;12.80;85.20
20147;DHT22;10234;50.856;15.716;2024-02-21T11:48:51;12.50;87.10
20147;DHT22;10234;50.856;15.716;2024-02-21T11:51:24;12.30;88.00
20147;DHT22;10234;50.856;15.716;2024-02-21T11:53:52;12.00;90.10
20147;DHT22;10234;50.856;15.716;2024-02-21T11:56:20;11.70;88.50
20147;DHT22;10234;50.856;15.716;2024-02-21T11:58:48;11.40;90.20
20147;DHT22;10234;50.856;15.716;2024-02-21T12:01:15;11.10;91.60
20147;DHT22;10234;50.856;15.716;2024-02-21T12:03:42;10.80;92.00
20147;DHT22;10234;50.856;15.716;2024-02-21T12:06:16;10.80;92.20
20147;DHT22;10234;50.856;15.716;2024-02-21T12:08:45;11.10;93.10
20147;DHT22;10234;50.856;15.716;2024-02-21T12:11:22;10.50;91.80
20147;DHT22;10234;50.856;15.716;2024-02-21T12:13:59;10.30;93.20
20147;DHT22;10234;50.856;15.716;2024-02-21T12:16:27;10.50;93.60
20147;DHT22;10234;50.856;15.716;2024-02-21T12:18:55;10.80;91.90
20147;DHT22;10234;50.856;15.716;2024-02-21T12:21:24;11.00;92.60
20147;DHT22;10234;50.856;15.716;2024-02-21T12:23:51;11.10;90.80
20147;DHT22;10234;50.856;15.716;2024-02-21T12:26:18;11.10;91.40
20147;DHT22;10234;50.856;15.716;2024-02-21T12:28:47;11.20;91.50
20147;DHT22;10234;50.856;15.716;2024-02-21T12:31:13;11.20;91.80
20147;DHT22;10234;50.856;15.716;2024-02-21T12:33:41;11.30;91.90
20147;DHT22;10234;50.856;15.716;2024-02-21T12:36:08;12.20;96.80
20147;DHT22;10234;50.856;15.716;2024-02-21T12:38:35;12.20;90.70
20147;DHT22;10234;50.856;15.716;2024-02-21T12:41:03;12.90;88.30
20147;DHT22;10234;50.856;15.716;2024-02-21T12:43:30;13.60;86.60
20147;DHT22;10234;50.856;15.716;2024-02-21T12:45:58;14.00;82.60
20147;DHT22;10234;50.856;15.716;2024-02-21T12:48:25;13.80;83.30
20147;DHT22;10234;50.856;15.716;2024-02-21T12:50:52;13.50;85.30
20147;DHT22;10234;50.856;15.716;2024-02-21T12:53:19;13.20;88.70
20147;DHT22;10234;50.856;15.716;2024-02-21T12:55:48;13.00;85.50
20147;DHT22;10234;50.856;15.716;2024-02-21T12:58:16;12.40;86.30
20147;DHT22;10234;50.856;15.716;2024-02-21T13:00:43;12.10;90.90
20147;DHT22;10234;50.856;15.716;2024-02-21T13:03:12;12.10;88.70
20147;DHT22;10234;50.856;15.716;2024-02-21T13:05:39;11.80;88.50
20147;DHT22;10234;50.856;15.716;2024-02-21T13:08:07;11.70;90.30
20147;DHT22;10234;50.856;15.716;2024-02-21T13:10:34;11.40;90.60
20147;DHT22;10234;50.856;15.716;2024-02-21T13:13:01;11.20;90.40
20147;DHT22;10234;50.856;15.716;2024-02-21T13:15:28;11.10;91.30
20147;DHT22;10234;50.856;15.716;2024-02-21T13:17:56;11.00;90.80
20147;DHT22;10234;50.856;15.716;2024-02-21T13:20:25;11.50;96.80
20147;DHT22;10234;50.856;15.716;2024-02-21T13:22:52;11.80;90.50
20147;DHT22;10234;50.856;15.716;2024-02-21T13:25:19;12.40;91.10
20147;DHT22;10234;50.856;15.716;2024-02-21T13:27:47;13.20;88.00
20147;DHT22;10234;50.856;15.716;2024-02-21T13:30:17;15.10;79.10
20147;DHT22;10234;50.856;15.716;2024-02-21T13:32:44;15.00;79.60
20147;DHT22;10234;50.856;15.716;2024-02-21T13:35:12;15.10;77.90
20147;DHT22;10234;50.856;15.716;2024-02-21T13:37:41;14.50;81.20
20147;DHT22;10234;50.856;15.716;2024-02-21T13:40:09;13.90;81.50
20147;DHT22;10234;50.856;15.716;2024-02-21T13:42:36;13.20;84.20
20147;DHT22;10234;50.856;15.716;2024-02-21T13:45:04;12.60;88.10
20147;DHT22;10234;50.856;15.716;2024-02-21T13:47:31;12.10;88.90
20147;DHT22;10234;50.856;15.716;2024-02-21T13:49:58;11.70;89.90
20147;DHT22;10234;50.856;15.716;2024-02-21T13:52:25;11.40;90.40
20147;DHT22;10234;50.856;15.716;2024-02-21T13:54:54;11.30;91.10
20147;DHT22;10234;50.856;15.716;2024-02-21T13:57:21;11.20;91.60
20147;DHT22;10234;50.856;15.716;2024-02-21T13:59:48;11.10;91.20
20147;DHT22;10234;50.856;15.716;2024-02-21T14:02:16;10.80;91.80
20147;DHT22;10234;50.856;15.716;2024-02-21T14:04:43;10.50;92.50
20147;DHT22;10234;50.856;15.716;2024-02-21T14:07:10;10.40;93.70
20147;DHT22;10234;50.856;15.716;2024-02-21T14:09:37;10.20;92.80
20147;DHT22;10234;50.856;15.716;2024-02-21T14:12:06;9.90;93.50
20147;DHT22;10234;50.856;15.716;2024-02-21T14:14:35;9.80;93.30
20147;DHT22;10234;50.856;15.716;2024-02-21T14:17:02;9.60;93.50
20147;DHT22;10234;50.856;15.716;2024-02-21T14:19:29;9.40;93.70
20147;DHT22;10234;50.856;15.716;2024-02-21T14:21:56;9.00;94.40
20147;DHT22;10234;50.856;15.716;2024-02-21T14:24:23;9.00;94.20
20147;DHT22;10234;50.856;15.716;2024-02-21T14:26:50;8.70;95.00
20147;DHT22;10234;50.856;15.716;2024-02-21T14:29:18;8.60;95.50
20147;DHT22;10234;50.856;15.716;2024-02-21T14:31:45;8.50;95.60
20147;DHT22;10234;50.856;15.716;2024-02-21T14:34:12;8.50;95.40
20147;DHT22;10234;50.856;15.716;2024-02-21T14:36:39;8.40;96.00
20147;DHT22;10234;50.856;15.716;2024-02-21T14:39:06;8.40;95.50
20147;DHT22;10234;50.856;15.716;2024-02-21T14:41:33;8.30;95.90
20147;DHT22;10234;50.856;15.716;2024-02-21T14:44:00;8.20;96.00
20147;DHT22;10234;50.856;15.716;2024-02-21T14:46:30;8.20;96.00
20147;DHT22;10234;50.856;15.716;2024-02-21T14:48:57;8.10;95.80
20147;DHT22;10234;50.856;15.716;2024-02-21T14:51:24;8.00;95.60
20147;DHT22;10234;50.856;15.716;2024-02-21T14:53:50;8.00;96.00
20147;DHT22;10234;50.856;15.716;2024-02-21T14:56:18;8.00;95.40
20147;DHT22;10234;50.856;15.716;2024-02-21T14:58:44;8.00;99.90
20147;DHT22;10234;50.856;15.716;2024-02-21T15:01:12;7.80;95.80
20147;DHT22;10234;50.856;15.716;2024-02-21T15:03:42;8.10;96.30
20147;DHT22;10234;50.856;15.716;2024-02-21T15:06:09;8.20;95.60
20147;DHT22;10234;50.856;15.716;2024-02-21T15:08:37;8.20;94.90
20147;DHT22;10234;50.856;15.716;2024-02-21T15:11:04;8.10;94.60
20147;DHT22;10234;50.856;15.716;2024-02-21T15:13:31;8.40;94.60
20147;DHT22;10234;50.856;15.716;2024-02-21T15:15:58;8.20;93.90
20147;DHT22;10234;50.856;15.716;2024-02-21T15:20:54;8.10;99.90
20147;DHT22;10234;50.856;15.716;2024-02-21T15:23:21;8.00;95.50
20147;DHT22;10234;50.856;15.716;2024-02-21T15:25:50;7.90;95.50
20147;DHT22;10234;50.856;15.716;2024-02-21T15:28:17;8.20;95.60
20147;DHT22;10234;50.856;15.716;2024-02-21T15:30:44;7.80;95.40
20147;DHT22;10234;50.856;15.716;2024-02-21T15:33:11;7.60;99.90
20147;DHT22;10234;50.856;15.716;2024-02-21T15:35:38;7.70;97.10
20147;DHT22;10234;50.856;15.716;2024-02-21T15:38:06;7.60;96.40